Warning: Javascript must be enabled to use all the features on this page!


Page Loading - Please Wait...

Click to hideNews Bulletins
  • Attention current WaterAlert users: NextGen WaterAlert is replacing Legacy WaterAlert. You must take action before 9/30/2022 to retain your alerts. Read more.
  • Explore the NEW USGS National Water Dashboard interactive map to access real-time water data from over 13,500 stations nationwide.
  • Full News RSS icon

Peak Streamflow for the Nation

USGS 01381500 Whippany River at Morristown NJ

Morris County, New Jersey
Hydrologic Unit Code 02030103
Latitude  40°48'26", Longitude  74°27'25" NAD83
Drainage area 29.4  square miles
Gage datum 260.01 feet above NGVD29
Output formats
Table
Graph
Tab-separated file
peakfq (watstore) format
Reselect output format
Water
Year
Date Gage
Height
(feet)
Stream-
flow
(cfs)
1922 1922-07-01 5.40 1,020
1923 1923-03-16 4.90 815
1924 1924-04-07 6.50 1,530
1925 1925-08-01 5.30 975
1926 1926-02-25 4.82 783
1927 1926-11-16 3.80 450
1928 1928-08-26 7.30 2,000
1929 1929-02-07 6.00 1,290
1930 1930-03-08 4.20 570
1931 1931-07-11 4.14 552
1932 1932-03-28 4.31 604
1933 1932-11-19 7.00 1,820
1934 1934-03-05 4.98 847
1935 1934-10-06 3.70 467
1936 1936-03-12 6.29 1,500
1937 1936-12-20 4.08 491
1938 1938-09-22 5.62 1,170
1939 1939-04-19 4.12 529
1940 1940-03-15 6.33 1,500
1941 1941-02-08 4.50 679
1942 1942-08-14 5.71 1,220
1943 1942-12-30 4.13 540
1944 1944-03-07 4.40 640
1945 1945-01-01 3.90 460
1946 1946-05-13 5.30 1,020
1947 1947-05-26 4.27 591
1948 1947-11-08 4.87 829
1949 1948-12-31 6.00 1,350
1950 1950-03-23 3.63 375
1951 1951-03-31 5.14 938
1952 1952-06-01 6.02 1,360
1953 1953-01-24 4.81 804
1954 1954-09-11 3.29 282
1955 1955-08-19 5.65 1,160
1956 1955-10-15 5.10 900
1957 1957-05-14 4.38 613
1958 1958-02-28 5.15 925
1959 1959-08-09 4.08 509
1960 1960-09-12 4.56 684
1961 1961-02-26 3.97 475
1962 1962-03-12 5.66 1,160
1963 1963-03-06 3.61 367
1964 1963-11-07 3.73 401
1965 1965-02-08 4.54 716
1966 1966-09-21 4.45 640
1967 1967-03-07 4.05 500
1968 1968-05-29 5.16 930
1969 1969-06-15 4.31 624
1970 1970-04-02 5.96 1,310
1971 1971-08-28 8.60 2,800
1972 1972-06-19 5.04 946
1973 1973-02-03 6.01 1,360
1974 1973-12-21 6.20 1,450
1975 1975-09-25 5.24 1,020
1976 1976-01-27 4.56 752
1977 1977-03-22 6.23 1,480
1978 1977-11-08 5.55 1,140
1979 1979-01-25 7.40 2,080
1980 1980-03-22 5.47 1,100
1981 1981-07-27 5.76 1,130
1982 1982-01-04 5.14 871
1983 1983-04-16 5.78 1,250
1984 1984-04-05 6.66 1,680
1985 1985-09-27 5.46 1,120
1986 1986-08-02 5.32 1,060
1987 1987-04-04 5.54 1,150
1988 1988-07-27 5.37 1,080
1989 1989-05-06 6.07 1,380
1990 1990-08-11 6.00 1,350
1991 1991-09-25 5.98 1,340
1992 1992-06-06 6.32 1,510
1993 1993-04-01 4.43 690
1994 1994-01-28 5.10 969
1995 1995-07-18 4.61 762
1996 1996-01-20 5.56 1,160
1997 1996-10-20 7.79 2,300
1998 1998-06-14 5.78 1,190
1999 1999-09-16 8.33 2,630
2000 2000-07-16 4.65 673
2001 2001-08-13 4.88 774
2002 2002-04-28 4.53 607
2003 2003-06-01 4.79 728
2004 2004-07-23 5.83 1,060
2005 2005-04-02 6.06 1,150
2006 2005-10-08 6.67 1,550
2007 2007-04-15 6.79 1,740
2008 2008-09-06 6.37 1,500
2009 2009-08-02 5.89 1,240
2010 2010-03-14 6.45 1,550
2011 2011-08-28 9.58 3,780
2012 2011-11-23 5.96 1,260
2013 2013-07-01 5.59 1,080
2014 2014-04-30 6.37 1,500
2015 2015-04-20 4.61 652
2016 2016-02-25 5.16 819
2017 2017-07-07 5.67 1,050
2018 2018-08-11 5.87 1,150